Juan De Fuca — WDA5852 — position and weather

sailwx.info

Track history (hours):
 
Tides and Currents Weather Stations Pressure Air Temp Water Temp Dewpoint Dewpoint Depression Visibility Wind Speed Wind Dir Waves Ship Positions

Juan De Fuca

Owner: Puget Sound Pilots, Seattle, WA. More information available from US FCC via Universal Licensing System.

Last reported at 2018-Feb-21 10:48 UTC. Time now 2018-Feb-21 11:02 UTC.
Position N 48°08' W 123°26'.

Length 23 m.

Type: Other ship. MMSI: 366824910.

Date/timePositionNaut miles runAvg speedWind from/ knotsBaromVisibWave heightAir tempDewpointWater temp
2018-Feb-21 10:48N 48°08' W 123°26'0 0.0
2018-Feb-21 10:27N 48°08' W 123°26'0 0.0
2018-Feb-21 09:59N 48°08' W 123°26'0 1.0
2018-Feb-21 09:30N 48°08' W 123°25'2 3.5
2018-Feb-21 09:00N 48°09' W 123°23'2 2.8
2018-Feb-21 08:23N 48°08' W 123°26'0 0.0
2018-Feb-21 08:00N 48°08' W 123°26'0 0.6
2018-Feb-21 07:30N 48°08' W 123°25'  
2018-Feb-18 16:06N 48°08' W 123°26'0 0.1
2018-Feb-18 16:00N 48°08' W 123°26'0 0.0
2018-Feb-18 15:30N 48°08' W 123°26'0 0.0
2018-Feb-18 15:00N 48°08' W 123°26'0 0.0
2018-Feb-18 14:28N 48°08' W 123°26'0 0.0
2018-Feb-18 13:55N 48°08' W 123°26'0 0.0
2018-Feb-18 13:30N 48°08' W 123°26'0 0.0
2018-Feb-18 12:58N 48°08' W 123°26'0 0.0
2018-Feb-18 12:30N 48°08' W 123°26'0 0.0
2018-Feb-18 12:00N 48°08' W 123°26'0 0.0
2018-Feb-18 11:30N 48°08' W 123°26'0 0.0
2018-Feb-18 10:58N 48°08' W 123°26'0 0.0
2018-Feb-18 10:30N 48°08' W 123°26'0 0.0
2018-Feb-18 10:00N 48°08' W 123°26'0 0.0
2018-Feb-18 08:43N 48°08' W 123°26'0 0.2
2018-Feb-18 08:30N 48°08' W 123°25'0 0.6
2018-Feb-18 08:00N 48°08' W 123°25'0 0.6
2018-Feb-18 07:29N 48°08' W 123°26'0 0.0
2018-Feb-18 06:59N 48°08' W 123°26'0 0.0
2018-Feb-17 16:11N 48°08' W 123°26'0 0.0
2018-Feb-17 16:00N 48°08' W 123°26'0 0.0
2018-Feb-17 14:08N 48°08' W 123°26'0 0.0
2018-Feb-17 14:00N 48°08' W 123°26'0 0.0
2018-Feb-17 13:30N 48°08' W 123°26'0 0.0
2018-Feb-17 13:00N 48°08' W 123°26'1 1.8
2018-Feb-17 12:29N 48°08' W 123°24'1 1.8
2018-Feb-17 12:00N 48°08' W 123°26'0 0.0
2018-Feb-17 11:30N 48°08' W 123°26'0 0.0
2018-Feb-17 11:00N 48°08' W 123°26'0 0.0
2018-Feb-17 10:28N 48°08' W 123°26'0 0.0
2018-Feb-17 10:00N 48°08' W 123°26'0 0.0
2018-Feb-17 07:58N 48°08' W 123°26'0 0.0
2018-Feb-17 07:28N 48°08' W 123°26'0 0.0
2018-Feb-17 07:00N 48°08' W 123°26'2 3.9
2018-Feb-17 06:30N 48°10' W 123°24'0 0.6
2018-Feb-17 06:00N 48°09' W 123°23'2 0.0
2018-Feb-15 14:49N 48°08' W 123°26'0 0.0
2018-Feb-15 14:30N 48°08' W 123°26'0 0.0
2018-Feb-15 14:00N 48°08' W 123°26'0 0.0
2018-Feb-15 13:30N 48°08' W 123°26'0 0.0
2018-Feb-15 13:00N 48°08' W 123°26'0 0.0
2018-Feb-15 12:30N 48°08' W 123°26'0 0.0
2018-Feb-15 11:58N 48°08' W 123°26'0 0.0
2018-Feb-15 11:30N 48°08' W 123°26'2 2.9
2018-Feb-15 10:57N 48°08' W 123°23'2 3.4
2018-Feb-15 10:30N 48°08' W 123°26'1 2.3
2018-Feb-15 10:00N 48°08' W 123°24'1 2.3
2018-Feb-15 09:30N 48°08' W 123°26'0 0.0
2018-Feb-15 08:58N 48°08' W 123°26'0 0.0
2018-Feb-15 08:30N 48°08' W 123°26'0 0.0
2018-Feb-15 08:00N 48°08' W 123°26'0 0.0
2018-Feb-15 07:30N 48°08' W 123°26'0 0.0
2018-Feb-15 07:00N 48°08' W 123°26'0 0.0
2018-Feb-15 06:13N 48°08' W 123°26'0 0.0
2018-Feb-15 05:59N 48°08' W 123°26'0 0.0
2018-Feb-14 15:18N 48°08' W 123°26'0 0.0
2018-Feb-14 15:00N 48°08' W 123°26'0 0.0
2018-Feb-14 14:28N 48°08' W 123°26'0 0.0
2018-Feb-14 14:00N 48°08' W 123°26'0 0.0
2018-Feb-14 13:30N 48°08' W 123°26'0 0.0
2018-Feb-14 12:59N 48°08' W 123°26'0 0.0
2018-Feb-14 12:27N 48°08' W 123°26'0 0.0
2018-Feb-14 11:59N 48°08' W 123°26'0 0.0
2018-Feb-14 11:30N 48°08' W 123°26'0 0.0
2018-Feb-14 11:00N 48°08' W 123°26'0 0.0
2018-Feb-14 10:27N 48°08' W 123°26'0 0.0
2018-Feb-14 10:00N 48°08' W 123°26'0 0.0
2018-Feb-14 09:30N 48°08' W 123°26'2 3.7
2018-Feb-14 09:01N 48°10' W 123°24'1 1.2
2018-Feb-14 08:30N 48°10' W 123°23'2 1.9
2018-Feb-14 07:19N 48°08' W 123°26'0 0.0
2018-Feb-13 15:48N 48°08' W 123°26'0 0.0
2018-Feb-13 15:30N 48°08' W 123°26'0 0.0
2018-Feb-13 15:00N 48°08' W 123°26'0 0.0
2018-Feb-13 14:29N 48°08' W 123°26'0 0.0
2018-Feb-13 14:00N 48°08' W 123°26'0 0.0
2018-Feb-13 13:28N 48°08' W 123°26'0 0.0
2018-Feb-13 13:00N 48°08' W 123°26'0 0.0
2018-Feb-13 12:26N 48°08' W 123°26'0 0.0
2018-Feb-13 11:59N 48°08' W 123°26'0 0.0
2018-Feb-13 11:27N 48°08' W 123°26'0 0.0
2018-Feb-13 10:58N 48°08' W 123°26'0 0.0
2018-Feb-13 10:29N 48°08' W 123°26'1 2.7
2018-Feb-13 10:01N 48°08' W 123°24'1 2.2
2018-Feb-13 09:26N 48°08' W 123°26'0 0.0
2018-Feb-13 08:53N 48°08' W 123°26'2 4.4
2018-Feb-13 08:30N 48°10' W 123°24'2 2.7
2018-Feb-13 07:53N 48°08' W 123°26'0 0.0
2018-Feb-13 07:28N 48°08' W 123°26'0 0.0
2018-Feb-13 06:58N 48°08' W 123°26'0 0.0
2018-Feb-13 06:28N 48°08' W 123°26'2 0.5
2018-Feb-13 02:37N 48°09' W 123°23'1 8.3
2018-Feb-13 02:31N 48°08' W 123°24'1 2.0
2018-Feb-13 01:50N 48°08' W 123°26'0 0.0
2018-Feb-13 01:30N 48°08' W 123°26'0 0.0
2018-Feb-13 00:57N 48°08' W 123°26'0 0.0
2018-Feb-13 00:29N 48°08' W 123°26'0 0.0
2018-Feb-13 00:00N 48°08' W 123°26'0 0.0
2018-Feb-12 23:30N 48°08' W 123°26'0 0.0
2018-Feb-12 22:59N 48°08' W 123°26'0 0.0
2018-Feb-12 22:30N 48°08' W 123°26'0 0.0
2018-Feb-12 21:58N 48°08' W 123°26'0 0.0
2018-Feb-12 21:25N 48°08' W 123°26'0 0.0
2018-Feb-12 20:57N 48°08' W 123°26'0 0.0
2018-Feb-12 20:29N 48°08' W 123°26'0 0.0
2018-Feb-12 19:56N 48°08' W 123°26'0 0.0
2018-Feb-12 19:30N 48°08' W 123°26'0 0.0
2018-Feb-12 19:00N 48°08' W 123°26'0 0.0
2018-Feb-12 18:30N 48°08' W 123°26'0 0.0
2018-Feb-12 17:59N 48°08' W 123°26'0 0.0
2018-Feb-12 17:30N 48°08' W 123°26'0 0.0
2018-Feb-12 16:57N 48°08' W 123°26'0 0.0
2018-Feb-12 16:30N 48°08' W 123°26'0 0.0
2018-Feb-12 15:59N 48°08' W 123°26'0 0.0
2018-Feb-12 15:30N 48°08' W 123°26'0 0.0
2018-Feb-12 14:59N 48°08' W 123°26'0 0.0
2018-Feb-12 14:30N 48°08' W 123°26'0 0.0
2018-Feb-12 14:00N 48°08' W 123°26'0 0.0
2018-Feb-12 13:30N 48°08' W 123°26'0 0.0
2018-Feb-12 12:59N 48°08' W 123°26'0 0.0
2018-Feb-12 12:30N 48°08' W 123°26'0 0.0
2018-Feb-12 11:59N 48°08' W 123°26'0 0.0
2018-Feb-12 11:30N 48°08' W 123°26'0 0.0
2018-Feb-12 11:00N 48°08' W 123°26'0 0.0
2018-Feb-12 10:29N 48°08' W 123°26'0 0.0
2018-Feb-12 09:56N 48°08' W 123°26'0 0.0
2018-Feb-12 09:30N 48°08' W 123°26'0 0.2
2018-Feb-12 09:00N 48°08' W 123°26'0 0.2
2018-Feb-12 08:27N 48°08' W 123°26'0 0.6
2018-Feb-12 07:59N 48°08' W 123°25'1 1.8
2018-Feb-12 07:29N 48°08' W 123°24'1 1.2
2018-Feb-12 06:56N 48°08' W 123°25'0 0.0
2018-Feb-11 15:58N 48°08' W 123°26'0 0.0
2018-Feb-11 15:26N 48°08' W 123°26'0 0.0
2018-Feb-11 15:00N 48°08' W 123°26'1 2.2
2018-Feb-11 14:31N 48°08' W 123°24'1 1.8
2018-Feb-11 14:00N 48°08' W 123°25'1 2.6
2018-Feb-11 13:28N 48°08' W 123°23'2 3.3
2018-Feb-11 13:00N 48°08' W 123°26'0 0.0
2018-Feb-11 12:30N 48°08' W 123°26'0 0.0
2018-Feb-11 11:58N 48°08' W 123°26'0 0.0
2018-Feb-11 11:28N 48°08' W 123°26'0 0.0
2018-Feb-11 11:00N 48°08' W 123°26'  
Track history (hours):
 
Tides and Currents Weather Stations Pressure Air Temp Water Temp Dewpoint Dewpoint Depression Visibility Wind Speed Wind Dir Waves Ship Positions

Juan De Fuca

Owner: Puget Sound Pilots, Seattle, WA. More information available from US FCC via Universal Licensing System.

Last reported at 2018-Feb-21 10:48 UTC. Time now 2018-Feb-21 11:02 UTC.
Position N 48°08' W 123°26'.

Length 23 m.

Type: Other ship. MMSI: 366824910.

Date/timePositionNaut miles runAvg speedWind from/ knotsBaromVisibWave heightAir tempDewpointWater temp
2018-Feb-21 10:48N 48°08' W 123°26'0 0.0
2018-Feb-21 10:27N 48°08' W 123°26'0 0.0
2018-Feb-21 09:59N 48°08' W 123°26'0 1.0
2018-Feb-21 09:30N 48°08' W 123°25'2 3.5
2018-Feb-21 09:00N 48°09' W 123°23'2 2.8
2018-Feb-21 08:23N 48°08' W 123°26'0 0.0
2018-Feb-21 08:00N 48°08' W 123°26'0 0.6
2018-Feb-21 07:30N 48°08' W 123°25'  
2018-Feb-18 16:06N 48°08' W 123°26'0 0.1
2018-Feb-18 16:00N 48°08' W 123°26'0 0.0
2018-Feb-18 15:30N 48°08' W 123°26'0 0.0
2018-Feb-18 15:00N 48°08' W 123°26'0 0.0
2018-Feb-18 14:28N 48°08' W 123°26'0 0.0
2018-Feb-18 13:55N 48°08' W 123°26'0 0.0
2018-Feb-18 13:30N 48°08' W 123°26'0 0.0
2018-Feb-18 12:58N 48°08' W 123°26'0 0.0
2018-Feb-18 12:30N 48°08' W 123°26'0 0.0
2018-Feb-18 12:00N 48°08' W 123°26'0 0.0
2018-Feb-18 11:30N 48°08' W 123°26'0 0.0
2018-Feb-18 10:58N 48°08' W 123°26'0 0.0
2018-Feb-18 10:30N 48°08' W 123°26'0 0.0
2018-Feb-18 10:00N 48°08' W 123°26'0 0.0
2018-Feb-18 08:43N 48°08' W 123°26'0 0.2
2018-Feb-18 08:30N 48°08' W 123°25'0 0.6
2018-Feb-18 08:00N 48°08' W 123°25'0 0.6
2018-Feb-18 07:29N 48°08' W 123°26'0 0.0
2018-Feb-18 06:59N 48°08' W 123°26'0 0.0
2018-Feb-17 16:11N 48°08' W 123°26'0 0.0
2018-Feb-17 16:00N 48°08' W 123°26'0 0.0
2018-Feb-17 14:08N 48°08' W 123°26'0 0.0
2018-Feb-17 14:00N 48°08' W 123°26'0 0.0
2018-Feb-17 13:30N 48°08' W 123°26'0 0.0
2018-Feb-17 13:00N 48°08' W 123°26'1 1.8
2018-Feb-17 12:29N 48°08' W 123°24'1 1.8
2018-Feb-17 12:00N 48°08' W 123°26'0 0.0
2018-Feb-17 11:30N 48°08' W 123°26'0 0.0
2018-Feb-17 11:00N 48°08' W 123°26'0 0.0
2018-Feb-17 10:28N 48°08' W 123°26'0 0.0
2018-Feb-17 10:00N 48°08' W 123°26'0 0.0
2018-Feb-17 07:58N 48°08' W 123°26'0 0.0
2018-Feb-17 07:28N 48°08' W 123°26'0 0.0
2018-Feb-17 07:00N 48°08' W 123°26'2 3.9
2018-Feb-17 06:30N 48°10' W 123°24'0 0.6
2018-Feb-17 06:00N 48°09' W 123°23'2 0.0
2018-Feb-15 14:49N 48°08' W 123°26'0 0.0
2018-Feb-15 14:30N 48°08' W 123°26'0 0.0
2018-Feb-15 14:00N 48°08' W 123°26'0 0.0
2018-Feb-15 13:30N 48°08' W 123°26'0 0.0
2018-Feb-15 13:00N 48°08' W 123°26'0 0.0
2018-Feb-15 12:30N 48°08' W 123°26'0 0.0
2018-Feb-15 11:58N 48°08' W 123°26'0 0.0
2018-Feb-15 11:30N 48°08' W 123°26'2 2.9
2018-Feb-15 10:57N 48°08' W 123°23'2 3.4
2018-Feb-15 10:30N 48°08' W 123°26'1 2.3
2018-Feb-15 10:00N 48°08' W 123°24'1 2.3
2018-Feb-15 09:30N 48°08' W 123°26'0 0.0
2018-Feb-15 08:58N 48°08' W 123°26'0 0.0
2018-Feb-15 08:30N 48°08' W 123°26'0 0.0
2018-Feb-15 08:00N 48°08' W 123°26'0 0.0
2018-Feb-15 07:30N 48°08' W 123°26'0 0.0
2018-Feb-15 07:00N 48°08' W 123°26'0 0.0
2018-Feb-15 06:13N 48°08' W 123°26'0 0.0
2018-Feb-15 05:59N 48°08' W 123°26'0 0.0
2018-Feb-14 15:18N 48°08' W 123°26'0 0.0
2018-Feb-14 15:00N 48°08' W 123°26'0 0.0
2018-Feb-14 14:28N 48°08' W 123°26'0 0.0
2018-Feb-14 14:00N 48°08' W 123°26'0 0.0
2018-Feb-14 13:30N 48°08' W 123°26'0 0.0
2018-Feb-14 12:59N 48°08' W 123°26'0 0.0
2018-Feb-14 12:27N 48°08' W 123°26'0 0.0
2018-Feb-14 11:59N 48°08' W 123°26'0 0.0
2018-Feb-14 11:30N 48°08' W 123°26'0 0.0
2018-Feb-14 11:00N 48°08' W 123°26'0 0.0
2018-Feb-14 10:27N 48°08' W 123°26'0 0.0
2018-Feb-14 10:00N 48°08' W 123°26'0 0.0
2018-Feb-14 09:30N 48°08' W 123°26'2 3.7
2018-Feb-14 09:01N 48°10' W 123°24'1 1.2
2018-Feb-14 08:30N 48°10' W 123°23'2 1.9
2018-Feb-14 07:19N 48°08' W 123°26'0 0.0
2018-Feb-13 15:48N 48°08' W 123°26'0 0.0
2018-Feb-13 15:30N 48°08' W 123°26'0 0.0
2018-Feb-13 15:00N 48°08' W 123°26'0 0.0
2018-Feb-13 14:29N 48°08' W 123°26'0 0.0
2018-Feb-13 14:00N 48°08' W 123°26'0 0.0
2018-Feb-13 13:28N 48°08' W 123°26'0 0.0
2018-Feb-13 13:00N 48°08' W 123°26'0 0.0
2018-Feb-13 12:26N 48°08' W 123°26'0 0.0
2018-Feb-13 11:59N 48°08' W 123°26'0 0.0
2018-Feb-13 11:27N 48°08' W 123°26'0 0.0
2018-Feb-13 10:58N 48°08' W 123°26'0 0.0
2018-Feb-13 10:29N 48°08' W 123°26'1 2.7
2018-Feb-13 10:01N 48°08' W 123°24'1 2.2
2018-Feb-13 09:26N 48°08' W 123°26'0 0.0
2018-Feb-13 08:53N 48°08' W 123°26'2 4.4
2018-Feb-13 08:30N 48°10' W 123°24'2 2.7
2018-Feb-13 07:53N 48°08' W 123°26'0 0.0
2018-Feb-13 07:28N 48°08' W 123°26'0 0.0
2018-Feb-13 06:58N 48°08' W 123°26'0 0.0
2018-Feb-13 06:28N 48°08' W 123°26'2 0.5
2018-Feb-13 02:37N 48°09' W 123°23'1 8.3
2018-Feb-13 02:31N 48°08' W 123°24'1 2.0
2018-Feb-13 01:50N 48°08' W 123°26'0 0.0
2018-Feb-13 01:30N 48°08' W 123°26'0 0.0
2018-Feb-13 00:57N 48°08' W 123°26'0 0.0
2018-Feb-13 00:29N 48°08' W 123°26'0 0.0
2018-Feb-13 00:00N 48°08' W 123°26'0 0.0
2018-Feb-12 23:30N 48°08' W 123°26'0 0.0
2018-Feb-12 22:59N 48°08' W 123°26'0 0.0
2018-Feb-12 22:30N 48°08' W 123°26'0 0.0
2018-Feb-12 21:58N 48°08' W 123°26'0 0.0
2018-Feb-12 21:25N 48°08' W 123°26'0 0.0
2018-Feb-12 20:57N 48°08' W 123°26'0 0.0
2018-Feb-12 20:29N 48°08' W 123°26'0 0.0
2018-Feb-12 19:56N 48°08' W 123°26'0 0.0
2018-Feb-12 19:30N 48°08' W 123°26'0 0.0
2018-Feb-12 19:00N 48°08' W 123°26'0 0.0
2018-Feb-12 18:30N 48°08' W 123°26'0 0.0
2018-Feb-12 17:59N 48°08' W 123°26'0 0.0
2018-Feb-12 17:30N 48°08' W 123°26'0 0.0
2018-Feb-12 16:57N 48°08' W 123°26'0 0.0
2018-Feb-12 16:30N 48°08' W 123°26'0 0.0
2018-Feb-12 15:59N 48°08' W 123°26'0 0.0
2018-Feb-12 15:30N 48°08' W 123°26'0 0.0
2018-Feb-12 14:59N 48°08' W 123°26'0 0.0
2018-Feb-12 14:30N 48°08' W 123°26'0 0.0
2018-Feb-12 14:00N 48°08' W 123°26'0 0.0
2018-Feb-12 13:30N 48°08' W 123°26'0 0.0
2018-Feb-12 12:59N 48°08' W 123°26'0 0.0
2018-Feb-12 12:30N 48°08' W 123°26'0 0.0
2018-Feb-12 11:59N 48°08' W 123°26'0 0.0
2018-Feb-12 11:30N 48°08' W 123°26'0 0.0
2018-Feb-12 11:00N 48°08' W 123°26'0 0.0
2018-Feb-12 10:29N 48°08' W 123°26'0 0.0
2018-Feb-12 09:56N 48°08' W 123°26'0 0.0
2018-Feb-12 09:30N 48°08' W 123°26'0 0.2
2018-Feb-12 09:00N 48°08' W 123°26'0 0.2
2018-Feb-12 08:27N 48°08' W 123°26'0 0.6
2018-Feb-12 07:59N 48°08' W 123°25'1 1.8
2018-Feb-12 07:29N 48°08' W 123°24'1 1.2
2018-Feb-12 06:56N 48°08' W 123°25'0 0.0
2018-Feb-11 15:58N 48°08' W 123°26'0 0.0
2018-Feb-11 15:26N 48°08' W 123°26'0 0.0
2018-Feb-11 15:00N 48°08' W 123°26'1 2.2
2018-Feb-11 14:31N 48°08' W 123°24'1 1.8
2018-Feb-11 14:00N 48°08' W 123°25'1 2.6
2018-Feb-11 13:28N 48°08' W 123°23'2 3.3
2018-Feb-11 13:00N 48°08' W 123°26'0 0.0
2018-Feb-11 12:30N 48°08' W 123°26'0 0.0
2018-Feb-11 11:58N 48°08' W 123°26'0 0.0
2018-Feb-11 11:28N 48°08' W 123°26'0 0.0
2018-Feb-11 11:00N 48°08' W 123°26'  

Dump ship's entire track history